Time;durP1;ratioP1;P1;durP2;ratioP2;P2;SDS_P1;SDS_P2;PMS_P1;PMS_P2;Temp;Humidity;BMP_temperature;BMP_pressure;BME280_temperature;BME280_humidity;BME280_pressure;Samples;Min_cycle;Max_cycle;Signal;HPM_P1;HPM_P2
2024/01/13 00:01:48;;;;;;;16.95;15.15;;;17.40;50.70;;;;;;5075528;28;20189;-69
2024/01/13 00:04:15;;;;;;;16.77;15.15;;;17.40;50.60;;;;;;5091933;28;20205;-69
2024/01/13 00:06:41;;;;;;;16.42;14.73;;;17.40;50.60;;;;;;5092098;28;20192;-69
2024/01/13 00:09:07;;;;;;;16.65;14.95;;;17.40;50.60;;;;;;5075065;28;20266;-68
2024/01/13 00:11:33;;;;;;;15.90;14.30;;;17.30;50.60;;;;;;5092096;28;20201;-68
2024/01/13 00:13:59;;;;;;;16.17;14.57;;;17.40;50.70;;;;;;5092860;28;20223;-68
2024/01/13 00:16:25;;;;;;;15.82;14.23;;;17.40;50.60;;;;;;5071725;28;20194;-70
2024/01/13 00:18:51;;;;;;;15.45;13.93;;;17.30;50.60;;;;;;5092100;28;20201;-69
2024/01/13 00:21:17;;;;;;;15.75;14.23;;;17.40;50.60;;;;;;5088498;28;20538;-68
2024/01/13 00:23:43;;;;;;;15.98;14.38;;;17.40;51.20;;;;;;5089149;28;20192;-69
2024/01/13 00:26:09;;;;;;;16.05;14.45;;;17.30;50.50;;;;;;5074922;28;20193;-69
2024/01/13 00:28:35;;;;;;;15.85;14.27;;;17.30;50.40;;;;;;5092149;28;20196;-70
2024/01/13 00:31:01;;;;;;;15.40;13.88;;;17.30;50.50;;;;;;5092793;28;20187;-70
2024/01/13 00:33:26;;;;;;;16.25;14.70;;;17.30;50.50;;;;;;5092774;28;20230;-69
2024/01/13 00:35:52;;;;;;;15.93;14.32;;;17.40;50.60;;;;;;5074596;28;20235;-69
2024/01/13 00:38:18;;;;;;;15.60;14.20;;;17.30;50.60;;;;;;5087466;28;20211;-69
2024/01/13 00:40:44;;;;;;;15.60;14.00;;;17.30;50.40;;;;;;5072246;28;20186;-69
2024/01/13 00:43:10;;;;;;;14.48;12.98;;;17.30;50.40;;;;;;5091309;28;20185;-69
2024/01/13 00:45:35;;;;;;;14.52;13.13;;;17.30;50.50;;;;;;5074731;28;20209;-69
2024/01/13 00:48:01;;;;;;;15.18;13.68;;;17.30;50.40;;;;;;5074214;28;20189;-70
2024/01/13 00:50:27;;;;;;;15.18;13.68;;;17.30;50.50;;;;;;5091063;28;20551;-71
2024/01/13 00:52:53;;;;;;;14.65;13.20;;;17.30;50.50;;;;;;5082437;28;20226;-69
2024/01/13 00:55:19;;;;;;;15.88;14.27;;;17.40;50.60;;;;;;5091434;28;20209;-69
2024/01/13 00:57:44;;;;;;;15.15;13.65;;;17.30;50.40;;;;;;5090939;28;20193;-69
2024/01/13 01:00:11;;;;;;;15.10;13.57;;;17.30;50.40;;;;;;5092456;28;20261;-69
2024/01/13 01:02:37;;;;;;;14.73;13.30;;;17.30;50.30;;;;;;5074452;28;20177;-70
2024/01/13 01:05:04;;;;;;;15.40;13.90;;;17.30;50.30;;;;;;5067358;28;20215;-67
2024/01/13 01:07:29;;;;;;;14.30;12.85;;;17.30;50.30;;;;;;5091023;28;20188;-68
2024/01/13 01:09:55;;;;;;;14.60;13.20;;;17.30;50.30;;;;;;5074309;28;20194;-68
2024/01/13 01:12:21;;;;;;;13.38;12.07;;;17.30;50.40;;;;;;5067257;28;20241;-69
2024/01/13 01:14:46;;;;;;;14.35;12.93;;;17.30;50.30;;;;;;5073619;28;20667;-69
2024/01/13 01:17:13;;;;;;;14.73;13.20;;;17.30;50.20;;;;;;5087632;28;20211;-70
2024/01/13 01:19:39;;;;;;;13.65;12.38;;;17.30;50.30;;;;;;5090716;28;20229;-69
2024/01/13 01:22:04;;;;;;;14.70;13.20;;;17.30;50.30;;;;;;5073979;28;20181;-68
2024/01/13 01:24:30;;;;;;;14.13;12.73;;;17.30;50.20;;;;;;5090459;28;20230;-69
2024/01/13 01:26:56;;;;;;;14.98;13.48;;;17.30;50.30;;;;;;5090835;28;20192;-69
2024/01/13 01:29:22;;;;;;;15.13;13.65;;;17.30;50.30;;;;;;5088188;28;20199;-69
2024/01/13 01:31:47;;;;;;;13.70;12.38;;;17.30;50.20;;;;;;5074173;28;20195;-69
2024/01/13 01:34:13;;;;;;;13.52;12.23;;;17.30;50.30;;;;;;5073685;28;20220;-69
2024/01/13 01:36:39;;;;;;;14.13;12.73;;;17.30;50.20;;;;;;5073949;28;20189;-69
2024/01/13 01:39:04;;;;;;;13.57;12.18;;;17.30;50.20;;;;;;5090728;28;20220;-69
2024/01/13 01:41:32;;;;;;;13.05;11.77;;;17.30;50.20;;;;;;5073971;28;20188;-69
2024/01/13 01:43:57;;;;;;;12.90;11.60;;;17.30;50.30;;;;;;5091455;28;20204;-70
2024/01/13 01:46:23;;;;;;;14.10;12.70;;;17.30;50.20;;;;;;5090493;28;20246;-69
2024/01/13 01:48:58;;;;;;;13.38;12.00;;;17.30;50.20;;;;;;5090933;28;20242;-69
2024/01/13 01:51:25;;;;;;;13.23;11.95;;;17.30;50.10;;;;;;5067110;28;20179;-69
2024/01/13 01:53:51;;;;;;;13.73;12.43;;;17.30;50.10;;;;;;5091494;28;20212;-69
2024/01/13 01:56:25;;;;;;;13.55;12.20;;;17.30;50.20;;;;;;5090473;28;20201;-68
2024/01/13 01:58:53;;;;;;;13.70;12.35;;;17.30;50.20;;;;;;5090203;28;20688;-69
2024/01/13 02:01:21;;;;;;;13.00;11.70;;;17.30;50.20;;;;;;5083308;28;20555;-69
2024/01/13 02:03:47;;;;;;;13.20;12.00;;;17.30;50.20;;;;;;5090346;28;20272;-69
2024/01/13 02:06:13;;;;;;;12.63;11.48;;;17.30;50.10;;;;;;5095267;28;20192;-68
2024/01/13 02:08:40;;;;;;;13.07;11.68;;;17.30;50.20;;;;;;5095751;28;20203;-68
2024/01/13 02:11:08;;;;;;;13.15;11.85;;;17.30;50.20;;;;;;5094606;28;20192;-68
2024/01/13 02:13:34;;;;;;;13.02;11.75;;;17.30;50.20;;;;;;5095875;28;20192;-68
2024/01/13 02:15:59;;;;;;;12.98;11.77;;;17.30;50.20;;;;;;5095026;28;20238;-68
2024/01/13 02:18:25;;;;;;;13.68;12.27;;;17.30;50.10;;;;;;5094382;28;20212;-69
2024/01/13 02:20:51;;;;;;;12.98;11.77;;;17.30;50.10;;;;;;5105240;28;20181;-69
2024/01/13 02:23:17;;;;;;;13.18;11.88;;;17.30;50.00;;;;;;5094757;28;20568;-69
2024/01/13 02:25:42;;;;;;;13.18;11.95;;;17.30;50.10;;;;;;5094110;28;20203;-68
2024/01/13 02:28:09;;;;;;;12.90;11.60;;;17.30;50.10;;;;;;5095253;28;20196;-69
2024/01/13 02:30:35;;;;;;;12.52;11.32;;;17.20;50.00;;;;;;5094365;28;20280;-69
2024/01/13 02:33:00;;;;;;;12.43;11.23;;;17.30;50.20;;;;;;5095342;28;20296;-69
2024/01/13 02:35:26;;;;;;;12.23;11.13;;;17.20;50.00;;;;;;5077036;28;20204;-69
2024/01/13 02:37:52;;;;;;;14.40;12.90;;;17.30;50.10;;;;;;5093918;28;20253;-69
2024/01/13 02:40:18;;;;;;;12.98;11.73;;;17.30;50.00;;;;;;5073686;28;20178;-69
2024/01/13 02:42:44;;;;;;;12.45;11.27;;;17.30;50.00;;;;;;5090996;28;20663;-69
2024/01/13 02:45:09;;;;;;;12.52;11.25;;;17.30;49.90;;;;;;5093271;28;20207;-70
2024/01/13 02:47:43;;;;;;;12.95;11.65;;;17.30;50.00;;;;;;5093586;28;20193;-68
2024/01/13 02:50:10;;;;;;;13.40;12.20;;;17.30;49.90;;;;;;5076545;28;20258;-69
2024/01/13 02:52:37;;;;;;;12.77;11.48;;;17.20;49.90;;;;;;5077105;28;20618;-69
2024/01/13 02:55:03;;;;;;;12.38;11.18;;;17.20;50.00;;;;;;5090672;28;20250;-69
2024/01/13 02:57:29;;;;;;;12.20;11.07;;;17.30;49.90;;;;;;5095293;28;20184;-69
2024/01/13 02:59:54;;;;;;;11.60;10.50;;;17.20;49.90;;;;;;5096382;28;20205;-69
2024/01/13 03:02:20;;;;;;;12.38;11.07;;;17.30;49.90;;;;;;5076469;28;20291;-69
2024/01/13 03:04:46;;;;;;;12.75;11.45;;;17.20;49.80;;;;;;5089821;28;20205;-68
2024/01/13 03:07:11;;;;;;;12.15;11.05;;;17.20;49.90;;;;;;5075417;28;20188;-68
2024/01/13 03:09:37;;;;;;;12.13;10.95;;;17.20;49.80;;;;;;5093778;28;20765;-69
2024/01/13 03:12:03;;;;;;;12.85;11.57;;;17.20;49.90;;;;;;5094184;28;20675;-69
2024/01/13 03:14:30;;;;;;;12.48;11.18;;;17.20;49.80;;;;;;5092906;28;20220;-69
2024/01/13 03:16:55;;;;;;;12.40;11.20;;;17.20;49.80;;;;;;5093241;28;20674;-69
2024/01/13 03:19:21;;;;;;;12.43;11.23;;;17.20;49.80;;;;;;5079973;28;20265;-69
2024/01/13 03:21:47;;;;;;;11.93;10.75;;;17.20;49.80;;;;;;5088610;28;20219;-70
2024/01/13 03:24:12;;;;;;;12.35;11.20;;;17.20;49.80;;;;;;5078418;28;20227;-68
2024/01/13 03:26:38;;;;;;;12.63;11.32;;;17.20;49.80;;;;;;5081588;28;20573;-68
2024/01/13 03:29:04;;;;;;;12.15;10.95;;;17.20;49.80;;;;;;5075833;28;20200;-69
2024/01/13 03:31:30;;;;;;;11.90;10.80;;;17.20;49.70;;;;;;5075747;28;20189;-69
2024/01/13 03:33:55;;;;;;;12.40;11.25;;;17.20;49.70;;;;;;5084143;28;20208;-69
2024/01/13 03:36:21;;;;;;;11.98;10.88;;;17.20;49.80;;;;;;5109086;28;20614;-69
2024/01/13 03:38:47;;;;;;;11.82;10.70;;;17.20;49.80;;;;;;5093620;28;20205;-69
2024/01/13 03:41:15;;;;;;;12.30;11.10;;;17.20;49.70;;;;;;5076463;28;20199;-69
2024/01/13 03:43:41;;;;;;;11.13;10.05;;;17.20;49.70;;;;;;5082225;28;20227;-69
2024/01/13 03:46:07;;;;;;;12.07;10.80;;;17.20;49.80;;;;;;5094013;28;20192;-69
2024/01/13 03:48:33;;;;;;;12.02;10.93;;;17.20;49.70;;;;;;5081696;28;20546;-71
2024/01/13 03:51:00;;;;;;;12.27;10.77;;;17.20;49.70;;;;;;5092070;28;20185;-69
2024/01/13 03:53:25;;;;;;;12.32;11.23;;;17.20;49.70;;;;;;5077768;28;20184;-69
2024/01/13 03:55:51;;;;;;;12.25;11.00;;;17.20;49.70;;;;;;5075501;28;20213;-69
2024/01/13 03:58:17;;;;;;;11.75;10.55;;;17.20;49.60;;;;;;5074714;28;20240;-68
2024/01/13 04:00:43;;;;;;;11.13;10.02;;;17.20;49.60;;;;;;5092594;28;20189;-69
2024/01/13 04:03:09;;;;;;;11.43;10.32;;;17.20;49.60;;;;;;5074793;28;20192;-66
2024/01/13 04:05:34;;;;;;;11.30;10.20;;;17.20;49.60;;;;;;5074831;28;20232;-70
2024/01/13 04:08:00;;;;;;;11.27;10.18;;;17.20;49.70;;;;;;5075285;28;20244;-68
2024/01/13 04:10:26;;;;;;;11.02;10.02;;;17.20;49.60;;;;;;5075375;28;20224;-69
2024/01/13 04:12:52;;;;;;;11.77;10.68;;;17.20;49.60;;;;;;5092098;28;20655;-69
2024/01/13 04:15:18;;;;;;;11.43;10.35;;;17.20;49.60;;;;;;5075050;28;20224;-69
2024/01/13 04:17:43;;;;;;;11.40;10.30;;;17.20;49.60;;;;;;5074866;28;20201;-69
2024/01/13 04:20:09;;;;;;;11.57;10.40;;;17.20;49.60;;;;;;5091765;28;20287;-69
2024/01/13 04:22:35;;;;;;;11.70;10.52;;;17.20;49.60;;;;;;5091776;28;20288;-70
2024/01/13 04:25:01;;;;;;;11.20;10.20;;;17.20;49.50;;;;;;5091425;28;20335;-69
2024/01/13 04:27:27;;;;;;;10.88;9.88;;;17.20;49.50;;;;;;5076412;28;20667;-68
2024/01/13 04:29:52;;;;;;;12.02;10.82;;;17.20;49.60;;;;;;5066588;28;20197;-69
2024/01/13 04:32:18;;;;;;;11.88;10.75;;;17.20;49.60;;;;;;5084742;28;20703;-69
2024/01/13 04:34:44;;;;;;;11.15;10.15;;;17.20;49.60;;;;;;5090490;28;20212;-68
2024/01/13 04:37:09;;;;;;;11.20;10.20;;;17.20;49.50;;;;;;5074916;28;20564;-68
2024/01/13 04:39:35;;;;;;;11.32;10.23;;;17.20;49.40;;;;;;5074764;28;20244;-68
2024/01/13 04:42:01;;;;;;;10.95;9.88;;;17.20;49.50;;;;;;5091824;28;20197;-68
2024/01/13 04:44:26;;;;;;;10.85;9.75;;;17.20;49.50;;;;;;5090236;28;20235;-69
2024/01/13 04:46:52;;;;;;;11.57;10.48;;;17.20;49.50;;;;;;5091441;28;20199;-69
2024/01/13 04:49:18;;;;;;;11.00;9.90;;;17.20;49.50;;;;;;5070278;28;20247;-69
2024/01/13 04:51:44;;;;;;;11.38;10.27;;;17.20;49.50;;;;;;5069716;28;20260;-69
2024/01/13 04:54:11;;;;;;;11.55;10.45;;;17.20;49.50;;;;;;5072740;28;20212;-69
2024/01/13 04:56:37;;;;;;;10.70;9.70;;;17.20;49.50;;;;;;5091366;28;20342;-69
2024/01/13 04:59:03;;;;;;;11.07;10.07;;;17.20;49.40;;;;;;5092294;28;20212;-71
2024/01/13 05:01:28;;;;;;;12.02;10.88;;;17.10;49.40;;;;;;5074082;28;20193;-69
2024/01/13 05:03:54;;;;;;;11.35;10.25;;;17.20;49.50;;;;;;5091881;28;20205;-69
2024/01/13 05:06:20;;;;;;;11.60;10.50;;;17.20;49.40;;;;;;5113694;27;20184;-66
2024/01/13 05:08:46;;;;;;;10.82;9.88;;;17.10;49.30;;;;;;5074505;28;20188;-68
2024/01/13 05:11:12;;;;;;;11.25;10.15;;;17.10;49.30;;;;;;5087282;28;20575;-69
2024/01/13 05:13:37;;;;;;;10.95;9.95;;;17.20;49.40;;;;;;5079307;28;20197;-68
2024/01/13 05:16:03;;;;;;;12.00;10.80;;;17.20;49.40;;;;;;5074192;28;20188;-69
2024/01/13 05:18:29;;;;;;;11.35;10.25;;;17.20;49.40;;;;;;5077320;28;20210;-70
2024/01/13 05:20:55;;;;;;;11.23;10.18;;;17.10;49.30;;;;;;5098498;28;20207;-69
2024/01/13 05:23:20;;;;;;;11.50;10.40;;;17.10;49.30;;;;;;5074074;28;20198;-69
2024/01/13 05:25:46;;;;;;;11.68;10.50;;;17.10;49.30;;;;;;5090862;28;20209;-69
2024/01/13 05:28:12;;;;;;;11.95;10.75;;;17.20;49.30;;;;;;5097275;28;20203;-69
2024/01/13 05:30:38;;;;;;;11.75;10.55;;;17.10;49.20;;;;;;5074336;28;20222;-69
2024/01/13 05:33:04;;;;;;;11.15;10.05;;;17.10;49.20;;;;;;5090092;28;20210;-69
2024/01/13 05:35:29;;;;;;;11.13;10.02;;;17.20;50.00;;;;;;5090771;28;20212;-68
2024/01/13 05:37:55;;;;;;;12.10;10.88;;;17.20;52.70;;;;;;5095956;28;20192;-69
2024/01/13 05:40:21;;;;;;;10.43;9.43;;;17.20;50.30;;;;;;5090575;28;20192;-69
2024/01/13 05:42:47;;;;;;;11.13;10.02;;;17.20;52.80;;;;;;5090567;28;20258;-69
2024/01/13 05:45:13;;;;;;;11.20;10.13;;;17.20;51.00;;;;;;5078720;28;20298;-69
2024/01/13 05:47:38;;;;;;;11.00;9.90;;;17.20;51.10;;;;;;5096781;28;20177;-69
2024/01/13 05:50:05;;;;;;;11.23;10.13;;;17.10;49.30;;;;;;5073859;28;20189;-69
2024/01/13 05:52:32;;;;;;;11.18;10.10;;;17.10;49.70;;;;;;5090280;28;20195;-69
2024/01/13 05:54:58;;;;;;;11.30;10.23;;;17.20;49.40;;;;;;5091624;28;20213;-68
2024/01/13 05:57:23;;;;;;;11.45;10.35;;;17.10;49.20;;;;;;5085804;28;20197;-68
2024/01/13 05:59:50;;;;;;;11.40;10.30;;;17.10;49.20;;;;;;5073757;28;20215;-69
2024/01/13 06:02:16;;;;;;;11.20;10.10;;;17.20;49.50;;;;;;5087870;28;20185;-68
2024/01/13 06:04:42;;;;;;;11.57;10.48;;;17.10;50.40;;;;;;5090595;28;20201;-68
2024/01/13 06:07:08;;;;;;;11.88;10.88;;;17.10;49.60;;;;;;5090245;28;20191;-68
2024/01/13 06:09:34;;;;;;;11.88;10.70;;;17.10;49.30;;;;;;5073499;28;20184;-68
2024/01/13 06:12:00;;;;;;;10.88;9.88;;;17.10;49.10;;;;;;5073438;28;20234;-69
2024/01/13 06:14:25;;;;;;;10.68;9.60;;;17.10;49.10;;;;;;5089986;28;20236;-69
2024/01/13 06:16:51;;;;;;;11.77;10.60;;;17.10;48.90;;;;;;5107061;28;20185;-69
2024/01/13 06:19:17;;;;;;;11.43;10.32;;;17.10;48.90;;;;;;5073000;28;20221;-68
2024/01/13 06:21:43;;;;;;;11.25;10.25;;;17.10;49.00;;;;;;5089953;28;20263;-69
2024/01/13 06:24:12;;;;;;;11.52;10.40;;;17.10;48.90;;;;;;5078744;28;20209;-69
2024/01/13 06:26:39;;;;;;;11.25;10.18;;;17.10;48.90;;;;;;5095284;28;20181;-70
2024/01/13 06:29:06;;;;;;;12.05;10.80;;;17.10;48.90;;;;;;5096022;28;20196;-68
2024/01/13 06:31:32;;;;;;;11.90;10.77;;;17.10;48.90;;;;;;5073234;28;20204;-69
2024/01/13 06:33:58;;;;;;;11.77;10.57;;;17.10;48.90;;;;;;5089786;28;20209;-69
2024/01/13 06:36:24;;;;;;;11.80;10.68;;;17.10;49.00;;;;;;5095650;28;20205;-70
2024/01/13 06:38:50;;;;;;;10.70;9.65;;;17.10;49.20;;;;;;5089826;28;20245;-68
2024/01/13 06:41:16;;;;;;;11.45;10.35;;;17.10;49.60;;;;;;5089846;28;20223;-68
2024/01/13 06:43:41;;;;;;;10.93;9.93;;;17.10;49.00;;;;;;5089708;28;20207;-68
2024/01/13 06:46:08;;;;;;;11.15;10.07;;;17.10;48.90;;;;;;5091192;28;20675;-69
2024/01/13 06:48:34;;;;;;;10.70;9.70;;;17.10;49.00;;;;;;5092348;28;20216;-68
2024/01/13 06:51:00;;;;;;;11.70;10.50;;;17.10;48.90;;;;;;5099189;28;20220;-69
2024/01/13 06:53:26;;;;;;;11.38;10.27;;;17.10;49.00;;;;;;5099357;28;20220;-68
2024/01/13 06:55:51;;;;;;;11.35;10.25;;;17.10;49.00;;;;;;5076755;28;20291;-69
2024/01/13 06:58:18;;;;;;;12.07;10.88;;;17.10;48.90;;;;;;5088328;28;20710;-69
2024/01/13 07:00:43;;;;;;;11.00;10.00;;;17.10;48.90;;;;;;5093328;28;20226;-69
2024/01/13 07:03:09;;;;;;;10.70;9.70;;;17.10;48.90;;;;;;5093224;28;20602;-69
2024/01/13 07:05:35;;;;;;;12.18;10.98;;;17.10;48.90;;;;;;5094115;28;20201;-68
2024/01/13 07:08:00;;;;;;;12.55;11.35;;;17.10;49.00;;;;;;5096348;28;20181;-69
2024/01/13 07:10:30;;;;;;;11.20;10.15;;;17.10;48.90;;;;;;5091805;28;20184;-69
2024/01/13 07:12:56;;;;;;;11.63;10.43;;;17.10;49.00;;;;;;5087517;28;20187;-71
2024/01/13 07:15:22;;;;;;;10.95;9.95;;;17.10;48.90;;;;;;5095407;28;20205;-69
2024/01/13 07:17:48;;;;;;;11.55;10.45;;;17.10;48.90;;;;;;5078065;28;20207;-69
2024/01/13 07:20:14;;;;;;;11.73;10.52;;;17.10;49.00;;;;;;5092710;28;20245;-69
2024/01/13 07:22:40;;;;;;;11.75;10.65;;;17.10;48.90;;;;;;5094703;28;20192;-69
2024/01/13 07:25:07;;;;;;;12.43;11.23;;;17.10;48.90;;;;;;5099613;28;20215;-68
2024/01/13 07:27:33;;;;;;;12.48;11.27;;;17.10;48.90;;;;;;5081269;28;20280;-68
2024/01/13 07:29:59;;;;;;;12.02;10.93;;;17.10;49.00;;;;;;5083730;28;20236;-69
2024/01/13 07:32:25;;;;;;;12.32;11.18;;;17.10;49.00;;;;;;5097445;28;20230;-68
2024/01/13 07:34:51;;;;;;;11.85;10.75;;;17.10;48.90;;;;;;5093507;28;20255;-68
2024/01/13 07:37:16;;;;;;;12.40;11.20;;;17.10;48.90;;;;;;5077856;28;20234;-69
2024/01/13 07:39:45;;;;;;;12.55;11.40;;;17.10;48.90;;;;;;5096129;28;20205;-69
2024/01/13 07:42:11;;;;;;;12.57;11.38;;;17.10;48.90;;;;;;5075488;28;20189;-68
2024/01/13 07:44:37;;;;;;;13.43;12.13;;;17.10;48.90;;;;;;5102115;28;20215;-69
2024/01/13 07:47:03;;;;;;;12.85;11.68;;;17.10;48.90;;;;;;5098560;28;20177;-69
2024/01/13 07:49:30;;;;;;;12.68;11.48;;;17.10;49.00;;;;;;5093791;28;20193;-69
2024/01/13 07:51:56;;;;;;;12.90;11.70;;;17.10;48.90;;;;;;5100169;28;20188;-68
2024/01/13 07:54:25;;;;;;;13.48;12.25;;;17.10;48.90;;;;;;5078593;28;20196;-69
2024/01/13 07:56:52;;;;;;;13.48;12.18;;;17.10;48.90;;;;;;5079727;28;20188;-68
2024/01/13 07:59:18;;;;;;;13.77;12.48;;;17.10;48.90;;;;;;5071176;28;20285;-69
2024/01/13 08:01:46;;;;;;;14.30;12.90;;;17.10;48.90;;;;;;5079422;28;20719;-69
2024/01/13 08:04:13;;;;;;;14.15;12.75;;;17.10;48.90;;;;;;5092759;28;20210;-69
2024/01/13 08:06:40;;;;;;;13.35;12.15;;;17.10;49.50;;;;;;5077111;28;20185;-69
2024/01/13 08:09:06;;;;;;;13.55;12.25;;;17.10;48.90;;;;;;5079320;28;20282;-70
2024/01/13 08:11:32;;;;;;;14.40;12.93;;;17.10;48.90;;;;;;5102188;28;20189;-70
2024/01/13 08:14:00;;;;;;;14.95;13.45;;;17.10;48.90;;;;;;5099292;28;20212;-68
2024/01/13 08:16:26;;;;;;;14.02;12.73;;;17.10;48.80;;;;;;5092194;28;20189;-69
2024/01/13 08:18:52;;;;;;;14.35;12.95;;;17.10;48.80;;;;;;5096246;28;20197;-70
2024/01/13 08:21:18;;;;;;;14.50;13.07;;;17.10;48.80;;;;;;5092097;28;20196;-69
2024/01/13 08:23:44;;;;;;;14.85;13.35;;;17.10;48.80;;;;;;5087523;28;20185;-68
2024/01/13 08:26:10;;;;;;;14.10;12.75;;;17.10;48.60;;;;;;5074863;28;20246;-68
2024/01/13 08:28:35;;;;;;;14.50;13.10;;;17.10;48.90;;;;;;5079039;28;20197;-69
2024/01/13 08:31:01;;;;;;;14.75;13.25;;;17.10;48.90;;;;;;5091664;28;20181;-68
2024/01/13 08:33:27;;;;;;;14.50;12.95;;;17.10;48.80;;;;;;5091035;28;20292;-69
2024/01/13 08:35:53;;;;;;;13.95;12.55;;;17.10;48.90;;;;;;5074097;28;20213;-68
2024/01/13 08:38:18;;;;;;;14.88;13.48;;;17.10;48.80;;;;;;5089611;28;20210;-67
2024/01/13 08:40:45;;;;;;;14.80;13.38;;;17.10;48.80;;;;;;5093260;28;20189;-67
2024/01/13 08:43:12;;;;;;;13.88;12.50;;;17.10;48.90;;;;;;5074089;28;20190;-68
2024/01/13 08:45:37;;;;;;;14.93;13.43;;;17.10;48.80;;;;;;5092093;28;20292;-68
2024/01/13 08:48:04;;;;;;;14.75;13.20;;;17.10;48.90;;;;;;5081145;28;20592;-68
2024/01/13 08:50:34;;;;;;;14.63;13.13;;;17.10;48.70;;;;;;5086596;28;20219;-69
2024/01/13 08:52:59;;;;;;;15.50;13.95;;;17.10;48.90;;;;;;5092384;28;20185;-68
2024/01/13 08:55:25;;;;;;;14.52;13.10;;;17.10;48.80;;;;;;5074616;28;20212;-68
2024/01/13 08:57:51;;;;;;;14.95;13.50;;;17.10;48.70;;;;;;5094959;28;20188;-68
2024/01/13 09:00:18;;;;;;;15.50;13.90;;;17.10;48.80;;;;;;5073945;28;20224;-67
2024/01/13 09:02:45;;;;;;;15.07;13.57;;;17.10;48.90;;;;;;5085066;28;20181;-67
2024/01/13 09:05:11;;;;;;;15.68;14.18;;;17.10;48.70;;;;;;5093055;28;20205;-67
2024/01/13 09:07:37;;;;;;;14.93;13.43;;;17.10;48.90;;;;;;5069731;28;20276;-68
2024/01/13 09:10:04;;;;;;;14.98;13.48;;;17.10;48.90;;;;;;5090885;28;20255;-68
2024/01/13 09:12:30;;;;;;;14.82;13.43;;;17.10;48.80;;;;;;5088657;28;20185;-68
2024/01/13 09:14:56;;;;;;;14.15;12.75;;;17.10;48.70;;;;;;5082023;28;20231;-68
2024/01/13 09:17:22;;;;;;;15.23;13.73;;;17.10;48.80;;;;;;5074444;28;20196;-68
2024/01/13 09:19:48;;;;;;;14.07;12.68;;;17.10;48.90;;;;;;5090930;28;20209;-69
2024/01/13 09:22:14;;;;;;;14.55;13.13;;;17.10;48.80;;;;;;5074139;28;20193;-69
2024/01/13 09:24:44;;;;;;;14.43;13.02;;;17.10;48.80;;;;;;5079049;28;20291;-68
2024/01/13 09:27:09;;;;;;;14.13;12.70;;;17.10;48.90;;;;;;5089690;28;20276;-68
2024/01/13 09:29:36;;;;;;;13.80;12.50;;;17.10;48.90;;;;;;5077835;28;20299;-71
2024/01/13 09:32:04;;;;;;;14.13;12.75;;;17.10;48.90;;;;;;5090405;28;20719;-68
2024/01/13 09:34:30;;;;;;;14.95;13.55;;;17.10;48.90;;;;;;5077382;28;20239;-69
2024/01/13 09:36:56;;;;;;;13.85;12.45;;;17.20;49.00;;;;;;5075896;28;20235;-68
2024/01/13 09:39:22;;;;;;;14.65;13.15;;;17.10;48.90;;;;;;5086568;28;20212;-70
2024/01/13 09:41:48;;;;;;;14.52;13.13;;;17.10;48.90;;;;;;5095514;28;20185;-68
2024/01/13 09:44:24;;;;;;;13.93;12.05;;;17.10;48.90;;;;;;5072915;28;20201;-68
2024/01/13 09:46:52;;;;;;;14.55;13.05;;;17.20;49.70;;;;;;5076909;28;20175;-69
2024/01/13 09:49:20;;;;;;;13.45;11.95;;;17.20;49.60;;;;;;5099093;28;20210;-67
2024/01/13 09:51:47;;;;;;;13.68;12.27;;;17.20;49.70;;;;;;5090461;28;20220;-69
2024/01/13 09:54:23;;;;;;;13.77;12.38;;;17.20;49.60;;;;;;5090121;28;20627;-69
2024/01/13 09:56:50;;;;;;;12.73;11.48;;;17.20;49.50;;;;;;5093524;28;20738;-68
2024/01/13 09:59:16;;;;;;;14.25;11.48;;;17.20;50.00;;;;;;5090813;28;20254;-69
2024/01/13 10:01:43;;;;;;;14.52;12.43;;;17.20;49.50;;;;;;5094544;28;20191;-73
2024/01/13 10:04:09;;;;;;;13.23;11.93;;;17.20;49.50;;;;;;5080834;28;20211;-69
2024/01/13 10:06:36;;;;;;;14.20;12.80;;;17.20;49.50;;;;;;5074035;28;20181;-68
2024/01/13 10:09:03;;;;;;;13.23;12.00;;;17.20;49.50;;;;;;5075088;28;20575;-69
2024/01/13 10:11:30;;;;;;;12.75;11.45;;;17.20;49.40;;;;;;5107187;28;20200;-68
2024/01/13 10:14:05;;;;;;;13.00;11.63;;;17.20;49.50;;;;;;5069499;28;20213;-68
2024/01/13 10:16:34;;;;;;;13.63;12.32;;;17.20;49.40;;;;;;5091306;28;20200;-69
2024/01/13 10:19:08;;;;;;;12.40;11.23;;;17.20;49.50;;;;;;5073306;28;20229;-68
2024/01/13 10:21:36;;;;;;;13.50;11.60;;;17.20;49.50;;;;;;5090441;28;20196;-68
2024/01/13 10:24:02;;;;;;;12.90;11.65;;;17.20;49.40;;;;;;5096024;28;20211;-69
2024/01/13 10:26:30;;;;;;;12.70;11.40;;;17.30;49.50;;;;;;5077355;28;20640;-69
2024/01/13 10:28:56;;;;;;;12.30;11.20;;;17.20;49.40;;;;;;5081046;28;20238;-69
2024/01/13 10:31:23;;;;;;;11.88;10.77;;;17.30;49.40;;;;;;5094368;28;20188;-68
2024/01/13 10:33:51;;;;;;;12.68;11.52;;;17.30;49.40;;;;;;5094139;28;20217;-71
2024/01/13 10:36:22;;;;;;;12.63;11.40;;;17.30;49.50;;;;;;5093847;28;20514;-69
2024/01/13 10:38:49;;;;;;;12.13;10.90;;;17.20;49.40;;;;;;5095114;28;20248;-68
2024/01/13 10:41:16;;;;;;;12.25;11.05;;;17.30;49.50;;;;;;5077036;28;20189;-68
2024/01/13 10:43:46;;;;;;;12.93;11.63;;;17.30;49.50;;;;;;5107114;28;20190;-68
2024/01/13 10:46:21;;;;;;;12.48;11.27;;;17.30;50.00;;;;;;5076870;28;20238;-68
2024/01/13 10:48:51;;;;;;;12.02;10.85;;;17.30;49.40;;;;;;5097938;28;20192;-69
2024/01/13 10:51:32;;;;;;;11.80;10.68;;;17.30;49.50;;;;;;5099130;28;20197;-69
2024/01/13 10:54:02;;;;;;;10.68;9.68;;;17.30;49.40;;;;;;5093649;28;20204;-69
2024/01/13 10:56:29;;;;;;;11.88;10.77;;;17.30;49.50;;;;;;5093145;28;20212;-69
2024/01/13 10:58:58;;;;;;;12.38;11.20;;;17.30;49.50;;;;;;5093215;28;20219;-67
2024/01/13 11:01:25;;;;;;;11.75;10.57;;;17.30;49.50;;;;;;5108646;27;20182;-69
2024/01/13 11:03:53;;;;;;;11.57;10.48;;;17.30;49.50;;;;;;5078079;28;20272;-69
2024/01/13 11:06:21;;;;;;;11.80;10.63;;;17.30;49.50;;;;;;5089637;28;20189;-68
2024/01/13 11:08:47;;;;;;;11.55;10.32;;;17.30;49.50;;;;;;5094066;28;20196;-69
2024/01/13 11:11:27;;;;;;;10.77;9.73;;;17.30;49.50;;;;;;5100168;28;20188;-68
2024/01/13 11:14:07;;;;;;;13.30;10.25;;;17.30;49.50;;;;;;5110458;27;20248;-69
2024/01/13 11:16:37;;;;;;;10.75;9.70;;;17.30;49.50;;;;;;5073609;28;20215;-68
2024/01/13 11:19:02;;;;;;;10.80;9.80;;;17.30;49.50;;;;;;5074359;28;20210;-69
2024/01/13 11:21:32;;;;;;;11.52;10.43;;;17.30;49.50;;;;;;5089544;28;20189;-68
2024/01/13 11:24:07;;;;;;;12.30;11.10;;;17.30;49.50;;;;;;5090421;28;20201;-69
2024/01/13 11:26:37;;;;;;;11.32;10.23;;;17.30;49.50;;;;;;5093651;28;20184;-69
2024/01/13 11:29:26;;;;;;;10.80;9.70;;;17.30;49.50;;;;;;5095623;28;20656;-68
2024/01/13 11:31:58;;;;;;;11.70;10.35;;;17.30;49.40;;;;;;5095838;28;20188;-69
2024/01/13 11:34:26;;;;;;;11.18;9.75;;;17.30;49.50;;;;;;5072674;28;20201;-69
2024/01/13 11:36:57;;;;;;;10.52;9.52;;;17.30;49.50;;;;;;5094654;28;20185;-69
2024/01/13 11:39:24;;;;;;;10.98;9.88;;;17.30;49.50;;;;;;5095749;28;20215;-69
2024/01/13 11:41:55;;;;;;;11.73;10.63;;;17.30;49.50;;;;;;5091313;28;20182;-68
2024/01/13 11:44:34;;;;;;;10.98;9.98;;;17.30;49.50;;;;;;5093145;28;20200;-68
2024/01/13 11:47:08;;;;;;;11.30;10.20;;;17.40;49.60;;;;;;5113897;27;20278;-68
2024/01/13 11:49:46;;;;;;;11.10;10.00;;;17.40;49.60;;;;;;5104205;28;20192;-69
2024/01/13 11:52:28;;;;;;;10.43;9.43;;;17.40;49.60;;;;;;5090724;28;20192;-70
2024/01/13 11:54:55;;;;;;;9.98;9.02;;;17.40;49.60;;;;;;5094938;28;20212;-69
2024/01/13 11:57:20;;;;;;;10.73;9.73;;;17.40;49.70;;;;;;5090805;28;20242;-69
2024/01/13 11:59:46;;;;;;;10.98;9.90;;;17.40;49.70;;;;;;5098597;28;20214;-70
2024/01/13 12:02:12;;;;;;;11.52;10.00;;;17.40;49.60;;;;;;5071141;28;20259;-69
2024/01/13 12:04:41;;;;;;;10.90;9.80;;;17.40;49.70;;;;;;5096112;28;20284;-69
2024/01/13 12:07:11;;;;;;;10.63;9.55;;;17.40;49.70;;;;;;5114261;27;20200;-69
2024/01/13 12:09:40;;;;;;;10.82;9.70;;;17.40;49.70;;;;;;5099006;28;20267;-69
2024/01/13 12:12:07;;;;;;;10.05;9.15;;;17.40;49.70;;;;;;5078265;28;20188;-70
2024/01/13 12:14:35;;;;;;;10.73;9.63;;;17.40;49.70;;;;;;5091535;28;20273;-69
2024/01/13 12:17:04;;;;;;;10.23;9.23;;;17.40;49.70;;;;;;5077484;28;20185;-69
2024/01/13 12:19:33;;;;;;;10.80;9.80;;;17.40;49.80;;;;;;5089157;28;20205;-69
2024/01/13 12:21:59;;;;;;;9.88;8.98;;;17.40;49.80;;;;;;5102995;28;20203;-69
2024/01/13 12:24:30;;;;;;;10.35;9.15;;;17.40;49.80;;;;;;5095973;28;20257;-70
2024/01/13 12:26:56;;;;;;;9.75;8.85;;;17.40;49.80;;;;;;5091966;28;20189;-69